sensor_id;sensor_type;location;lat;lon;timestamp;temperature;humidity
31038;DHT22;17702;47.590;7.666;2022-09-09T00:03:56;17.30;87.20
31038;DHT22;17702;47.590;7.666;2022-09-09T00:06:42;17.30;87.50
31038;DHT22;17702;47.590;7.666;2022-09-09T00:09:19;17.30;87.50
31038;DHT22;17702;47.590;7.666;2022-09-09T00:11:52;17.40;87.80
31038;DHT22;17702;47.590;7.666;2022-09-09T00:17:17;17.40;88.70
31038;DHT22;17702;47.590;7.666;2022-09-09T00:22:28;17.40;90.00
31038;DHT22;17702;47.590;7.666;2022-09-09T00:25:02;17.40;89.50
31038;DHT22;17702;47.590;7.666;2022-09-09T00:27:43;17.50;89.20
31038;DHT22;17702;47.590;7.666;2022-09-09T00:32:49;17.50;90.20
31038;DHT22;17702;47.590;7.666;2022-09-09T00:35:37;17.50;89.90
31038;DHT22;17702;47.590;7.666;2022-09-09T00:38:27;17.50;88.40
31038;DHT22;17702;47.590;7.666;2022-09-09T00:43:39;17.50;90.00
31038;DHT22;17702;47.590;7.666;2022-09-09T00:57:26;17.60;90.60
31038;DHT22;17702;47.590;7.666;2022-09-09T01:00:33;17.60;90.40
31038;DHT22;17702;47.590;7.666;2022-09-09T01:06:16;17.60;90.70
31038;DHT22;17702;47.590;7.666;2022-09-09T01:09:11;17.50;90.80
31038;DHT22;17702;47.590;7.666;2022-09-09T01:12:01;17.50;91.20
31038;DHT22;17702;47.590;7.666;2022-09-09T01:17:14;17.50;91.20
31038;DHT22;17702;47.590;7.666;2022-09-09T01:25:09;17.50;91.50
31038;DHT22;17702;47.590;7.666;2022-09-09T01:27:40;17.50;91.60
31038;DHT22;17702;47.590;7.666;2022-09-09T01:30:16;17.50;91.30
31038;DHT22;17702;47.590;7.666;2022-09-09T01:32:46;17.50;91.70
31038;DHT22;17702;47.590;7.666;2022-09-09T01:35:43;17.50;91.80
31038;DHT22;17702;47.590;7.666;2022-09-09T01:38:11;17.50;91.90
31038;DHT22;17702;47.590;7.666;2022-09-09T01:40:37;17.50;91.90
31038;DHT22;17702;47.590;7.666;2022-09-09T01:43:04;17.50;92.10
31038;DHT22;17702;47.590;7.666;2022-09-09T01:45:30;17.50;92.00
31038;DHT22;17702;47.590;7.666;2022-09-09T01:47:56;17.50;92.00
31038;DHT22;17702;47.590;7.666;2022-09-09T01:50:22;17.50;92.20
31038;DHT22;17702;47.590;7.666;2022-09-09T01:52:51;17.40;92.00
31038;DHT22;17702;47.590;7.666;2022-09-09T01:55:30;17.40;92.30
31038;DHT22;17702;47.590;7.666;2022-09-09T01:58:04;17.50;92.30
31038;DHT22;17702;47.590;7.666;2022-09-09T02:00:36;17.50;92.20
31038;DHT22;17702;47.590;7.666;2022-09-09T02:06:08;17.60;92.20
31038;DHT22;17702;47.590;7.666;2022-09-09T02:08:56;17.60;92.00
31038;DHT22;17702;47.590;7.666;2022-09-09T02:11:24;17.60;92.20
31038;DHT22;17702;47.590;7.666;2022-09-09T02:13:54;17.60;91.90
31038;DHT22;17702;47.590;7.666;2022-09-09T02:16:29;17.50;91.60
31038;DHT22;17702;47.590;7.666;2022-09-09T02:21:23;17.50;92.00
31038;DHT22;17702;47.590;7.666;2022-09-09T02:23:50;17.60;92.20
31038;DHT22;17702;47.590;7.666;2022-09-09T02:26:19;17.60;92.10
31038;DHT22;17702;47.590;7.666;2022-09-09T02:28:50;17.50;91.90
31038;DHT22;17702;47.590;7.666;2022-09-09T02:31:18;17.50;91.90
31038;DHT22;17702;47.590;7.666;2022-09-09T02:33:55;17.40;92.00
31038;DHT22;17702;47.590;7.666;2022-09-09T02:36:26;17.40;92.10
31038;DHT22;17702;47.590;7.666;2022-09-09T02:38:54;17.40;92.10
31038;DHT22;17702;47.590;7.666;2022-09-09T02:41:24;17.30;92.10
31038;DHT22;17702;47.590;7.666;2022-09-09T02:43:51;17.40;92.10
31038;DHT22;17702;47.590;7.666;2022-09-09T02:49:18;17.40;92.40
31038;DHT22;17702;47.590;7.666;2022-09-09T02:52:04;17.40;92.10
31038;DHT22;17702;47.590;7.666;2022-09-09T02:54:36;17.40;92.00
31038;DHT22;17702;47.590;7.666;2022-09-09T02:57:08;17.40;92.10
31038;DHT22;17702;47.590;7.666;2022-09-09T02:59:35;17.40;91.90
31038;DHT22;17702;47.590;7.666;2022-09-09T03:02:01;17.30;91.90
31038;DHT22;17702;47.590;7.666;2022-09-09T03:04:27;17.30;92.00
31038;DHT22;17702;47.590;7.666;2022-09-09T03:06:52;17.30;92.30
31038;DHT22;17702;47.590;7.666;2022-09-09T03:09:18;17.20;92.10
31038;DHT22;17702;47.590;7.666;2022-09-09T03:11:43;17.20;92.50
31038;DHT22;17702;47.590;7.666;2022-09-09T03:14:09;17.30;92.20
31038;DHT22;17702;47.590;7.666;2022-09-09T03:16:36;17.20;92.40
31038;DHT22;17702;47.590;7.666;2022-09-09T03:19:02;17.20;92.60
31038;DHT22;17702;47.590;7.666;2022-09-09T03:21:28;17.30;92.40
31038;DHT22;17702;47.590;7.666;2022-09-09T03:23:54;17.30;92.40
31038;DHT22;17702;47.590;7.666;2022-09-09T03:26:19;17.30;92.20
31038;DHT22;17702;47.590;7.666;2022-09-09T03:28:45;17.20;92.50
31038;DHT22;17702;47.590;7.666;2022-09-09T03:31:11;17.20;92.70
31038;DHT22;17702;47.590;7.666;2022-09-09T03:33:37;17.20;92.50
31038;DHT22;17702;47.590;7.666;2022-09-09T03:36:04;17.20;92.40
31038;DHT22;17702;47.590;7.666;2022-09-09T03:38:29;17.20;92.70
31038;DHT22;17702;47.590;7.666;2022-09-09T03:40:56;17.20;92.80
31038;DHT22;17702;47.590;7.666;2022-09-09T03:43:26;17.30;92.70
31038;DHT22;17702;47.590;7.666;2022-09-09T03:45:52;17.30;92.30
31038;DHT22;17702;47.590;7.666;2022-09-09T03:48:19;17.30;92.40
31038;DHT22;17702;47.590;7.666;2022-09-09T03:50:49;17.30;92.50
31038;DHT22;17702;47.590;7.666;2022-09-09T03:53:16;17.30;92.50
31038;DHT22;17702;47.590;7.666;2022-09-09T03:55:47;17.30;92.40
31038;DHT22;17702;47.590;7.666;2022-09-09T03:58:15;17.30;92.60
31038;DHT22;17702;47.590;7.666;2022-09-09T04:00:41;17.40;92.50
31038;DHT22;17702;47.590;7.666;2022-09-09T04:03:10;17.40;92.30
31038;DHT22;17702;47.590;7.666;2022-09-09T04:05:36;17.40;92.30
31038;DHT22;17702;47.590;7.666;2022-09-09T04:08:08;17.40;92.50
31038;DHT22;17702;47.590;7.666;2022-09-09T04:10:35;17.30;92.30
31038;DHT22;17702;47.590;7.666;2022-09-09T04:13:04;17.30;92.30
31038;DHT22;17702;47.590;7.666;2022-09-09T04:15:30;17.30;92.40
31038;DHT22;17702;47.590;7.666;2022-09-09T04:17:56;17.20;92.70
31038;DHT22;17702;47.590;7.666;2022-09-09T04:20:22;17.30;92.70
31038;DHT22;17702;47.590;7.666;2022-09-09T04:22:48;17.30;92.60
31038;DHT22;17702;47.590;7.666;2022-09-09T04:25:14;17.30;92.60
31038;DHT22;17702;47.590;7.666;2022-09-09T04:27:40;17.30;92.70
31038;DHT22;17702;47.590;7.666;2022-09-09T04:30:06;17.30;92.50
31038;DHT22;17702;47.590;7.666;2022-09-09T04:32:33;17.40;92.30
31038;DHT22;17702;47.590;7.666;2022-09-09T04:34:59;17.30;92.70
31038;DHT22;17702;47.590;7.666;2022-09-09T04:37:24;17.20;92.70
31038;DHT22;17702;47.590;7.666;2022-09-09T04:39:50;17.20;92.70
31038;DHT22;17702;47.590;7.666;2022-09-09T04:42:16;17.30;92.70
31038;DHT22;17702;47.590;7.666;2022-09-09T04:44:43;17.30;92.70
31038;DHT22;17702;47.590;7.666;2022-09-09T04:47:09;17.30;92.50
31038;DHT22;17702;47.590;7.666;2022-09-09T04:49:35;17.30;92.40
31038;DHT22;17702;47.590;7.666;2022-09-09T04:52:02;17.40;92.50
31038;DHT22;17702;47.590;7.666;2022-09-09T04:54:29;17.40;92.40
31038;DHT22;17702;47.590;7.666;2022-09-09T04:56:55;17.40;92.80
31038;DHT22;17702;47.590;7.666;2022-09-09T04:59:21;17.30;93.00
31038;DHT22;17702;47.590;7.666;2022-09-09T05:01:47;17.30;92.80
31038;DHT22;17702;47.590;7.666;2022-09-09T05:04:13;17.30;92.90
31038;DHT22;17702;47.590;7.666;2022-09-09T05:06:40;17.30;92.70
31038;DHT22;17702;47.590;7.666;2022-09-09T05:09:07;17.30;93.00
31038;DHT22;17702;47.590;7.666;2022-09-09T05:11:34;17.30;93.20
31038;DHT22;17702;47.590;7.666;2022-09-09T05:14:02;17.30;92.60
31038;DHT22;17702;47.590;7.666;2022-09-09T05:16:28;17.30;92.70
31038;DHT22;17702;47.590;7.666;2022-09-09T05:18:54;17.30;92.80
31038;DHT22;17702;47.590;7.666;2022-09-09T05:21:21;17.30;92.70
31038;DHT22;17702;47.590;7.666;2022-09-09T05:23:48;17.30;92.90
31038;DHT22;17702;47.590;7.666;2022-09-09T05:26:16;17.30;92.70
31038;DHT22;17702;47.590;7.666;2022-09-09T05:28:43;17.20;92.70
31038;DHT22;17702;47.590;7.666;2022-09-09T05:31:09;17.30;92.90
31038;DHT22;17702;47.590;7.666;2022-09-09T05:33:38;17.30;93.30
31038;DHT22;17702;47.590;7.666;2022-09-09T05:36:08;17.30;92.80
31038;DHT22;17702;47.590;7.666;2022-09-09T05:38:36;17.30;92.80
31038;DHT22;17702;47.590;7.666;2022-09-09T05:41:03;17.20;93.10
31038;DHT22;17702;47.590;7.666;2022-09-09T05:43:29;17.30;93.30
31038;DHT22;17702;47.590;7.666;2022-09-09T05:46:05;17.30;93.20
31038;DHT22;17702;47.590;7.666;2022-09-09T05:48:34;17.30;93.20
31038;DHT22;17702;47.590;7.666;2022-09-09T05:51:00;17.30;92.90
31038;DHT22;17702;47.590;7.666;2022-09-09T05:53:27;17.40;93.30
31038;DHT22;17702;47.590;7.666;2022-09-09T05:56:04;17.40;93.10
31038;DHT22;17702;47.590;7.666;2022-09-09T05:58:33;17.40;93.10
31038;DHT22;17702;47.590;7.666;2022-09-09T06:01:06;17.40;93.30
31038;DHT22;17702;47.590;7.666;2022-09-09T06:03:36;17.40;93.40
31038;DHT22;17702;47.590;7.666;2022-09-09T06:06:08;17.40;93.40
31038;DHT22;17702;47.590;7.666;2022-09-09T06:08:36;17.40;93.40
31038;DHT22;17702;47.590;7.666;2022-09-09T06:11:24;17.40;93.50
31038;DHT22;17702;47.590;7.666;2022-09-09T06:13:50;17.50;93.70
31038;DHT22;17702;47.590;7.666;2022-09-09T06:16:22;17.50;93.70
31038;DHT22;17702;47.590;7.666;2022-09-09T06:18:52;17.50;93.80
31038;DHT22;17702;47.590;7.666;2022-09-09T06:21:24;17.60;93.80
31038;DHT22;17702;47.590;7.666;2022-09-09T06:23:50;17.60;93.80
31038;DHT22;17702;47.590;7.666;2022-09-09T06:26:20;17.60;93.80
31038;DHT22;17702;47.590;7.666;2022-09-09T06:28:47;17.70;93.70
31038;DHT22;17702;47.590;7.666;2022-09-09T06:31:16;17.70;93.90
31038;DHT22;17702;47.590;7.666;2022-09-09T06:33:47;17.80;94.30
31038;DHT22;17702;47.590;7.666;2022-09-09T06:36:15;17.80;94.20
31038;DHT22;17702;47.590;7.666;2022-09-09T06:38:42;17.80;94.10
31038;DHT22;17702;47.590;7.666;2022-09-09T06:41:09;17.90;94.40
31038;DHT22;17702;47.590;7.666;2022-09-09T06:43:35;18.00;94.50
31038;DHT22;17702;47.590;7.666;2022-09-09T06:46:18;18.00;94.50
31038;DHT22;17702;47.590;7.666;2022-09-09T06:48:44;18.10;94.60
31038;DHT22;17702;47.590;7.666;2022-09-09T06:51:13;18.10;94.40
31038;DHT22;17702;47.590;7.666;2022-09-09T06:53:40;18.20;94.40
31038;DHT22;17702;47.590;7.666;2022-09-09T06:56:20;18.20;94.10
31038;DHT22;17702;47.590;7.666;2022-09-09T06:58:47;18.10;94.20
31038;DHT22;17702;47.590;7.666;2022-09-09T07:01:19;18.10;94.00
31038;DHT22;17702;47.590;7.666;2022-09-09T07:03:47;18.10;94.10
31038;DHT22;17702;47.590;7.666;2022-09-09T07:06:15;18.10;94.20
31038;DHT22;17702;47.590;7.666;2022-09-09T07:08:43;18.10;94.30
31038;DHT22;17702;47.590;7.666;2022-09-09T07:11:09;18.20;94.30
31038;DHT22;17702;47.590;7.666;2022-09-09T07:13:35;18.10;94.30
31038;DHT22;17702;47.590;7.666;2022-09-09T07:16:05;18.20;94.50
31038;DHT22;17702;47.590;7.666;2022-09-09T07:18:31;18.20;94.20
31038;DHT22;17702;47.590;7.666;2022-09-09T07:20:57;18.20;94.20
31038;DHT22;17702;47.590;7.666;2022-09-09T07:23:23;18.20;94.50
31038;DHT22;17702;47.590;7.666;2022-09-09T07:25:49;18.20;94.40
31038;DHT22;17702;47.590;7.666;2022-09-09T07:28:16;18.30;94.10
31038;DHT22;17702;47.590;7.666;2022-09-09T07:30:42;18.30;94.00
31038;DHT22;17702;47.590;7.666;2022-09-09T07:33:08;18.30;94.20
31038;DHT22;17702;47.590;7.666;2022-09-09T07:35:35;18.30;94.10
31038;DHT22;17702;47.590;7.666;2022-09-09T07:38:02;18.40;94.10
31038;DHT22;17702;47.590;7.666;2022-09-09T07:40:32;18.40;94.20
31038;DHT22;17702;47.590;7.666;2022-09-09T07:42:58;18.50;94.60
31038;DHT22;17702;47.590;7.666;2022-09-09T07:45:27;18.70;94.10
31038;DHT22;17702;47.590;7.666;2022-09-09T07:47:58;18.90;93.80
31038;DHT22;17702;47.590;7.666;2022-09-09T07:50:24;19.10;93.70
31038;DHT22;17702;47.590;7.666;2022-09-09T07:52:51;19.30;93.30
31038;DHT22;17702;47.590;7.666;2022-09-09T07:55:17;19.30;92.90
31038;DHT22;17702;47.590;7.666;2022-09-09T07:57:43;19.50;92.10
31038;DHT22;17702;47.590;7.666;2022-09-09T08:00:09;19.60;91.30
31038;DHT22;17702;47.590;7.666;2022-09-09T08:02:35;19.80;90.70
31038;DHT22;17702;47.590;7.666;2022-09-09T08:05:01;19.90;90.60
31038;DHT22;17702;47.590;7.666;2022-09-09T08:07:27;20.10;90.60
31038;DHT22;17702;47.590;7.666;2022-09-09T08:09:53;20.20;88.80
31038;DHT22;17702;47.590;7.666;2022-09-09T08:12:21;20.20;88.50
31038;DHT22;17702;47.590;7.666;2022-09-09T08:14:47;20.30;90.60
31038;DHT22;17702;47.590;7.666;2022-09-09T08:17:13;20.30;90.10
31038;DHT22;17702;47.590;7.666;2022-09-09T08:19:39;20.40;86.60
31038;DHT22;17702;47.590;7.666;2022-09-09T08:22:05;20.50;83.30
31038;DHT22;17702;47.590;7.666;2022-09-09T08:24:30;20.60;84.90
31038;DHT22;17702;47.590;7.666;2022-09-09T08:26:56;20.70;85.20
31038;DHT22;17702;47.590;7.666;2022-09-09T08:29:22;20.80;81.40
31038;DHT22;17702;47.590;7.666;2022-09-09T08:31:53;20.80;78.90
31038;DHT22;17702;47.590;7.666;2022-09-09T08:34:23;20.70;79.10
31038;DHT22;17702;47.590;7.666;2022-09-09T08:36:50;20.80;83.30
31038;DHT22;17702;47.590;7.666;2022-09-09T08:39:19;20.90;81.80
31038;DHT22;17702;47.590;7.666;2022-09-09T08:42:06;21.00;80.60
31038;DHT22;17702;47.590;7.666;2022-09-09T08:47:36;21.30;78.80
31038;DHT22;17702;47.590;7.666;2022-09-09T08:50:22;21.30;78.90
31038;DHT22;17702;47.590;7.666;2022-09-09T08:52:57;21.30;82.90
31038;DHT22;17702;47.590;7.666;2022-09-09T08:55:43;21.50;79.90
31038;DHT22;17702;47.590;7.666;2022-09-09T09:06:01;21.60;73.30
31038;DHT22;17702;47.590;7.666;2022-09-09T09:14:23;21.30;75.20
31038;DHT22;17702;47.590;7.666;2022-09-09T09:16:59;21.20;77.70
31038;DHT22;17702;47.590;7.666;2022-09-09T09:19:27;21.40;79.20
31038;DHT22;17702;47.590;7.666;2022-09-09T09:27:18;22.00;74.20
31038;DHT22;17702;47.590;7.666;2022-09-09T09:29:48;22.00;72.00
31038;DHT22;17702;47.590;7.666;2022-09-09T09:32:18;22.10;71.60
31038;DHT22;17702;47.590;7.666;2022-09-09T09:34:58;22.20;73.00
31038;DHT22;17702;47.590;7.666;2022-09-09T09:37:30;22.40;72.40
31038;DHT22;17702;47.590;7.666;2022-09-09T09:40:07;22.30;66.10
31038;DHT22;17702;47.590;7.666;2022-09-09T09:42:33;22.30;66.60
31038;DHT22;17702;47.590;7.666;2022-09-09T09:45:12;22.40;68.90
31038;DHT22;17702;47.590;7.666;2022-09-09T09:47:40;22.50;66.50
31038;DHT22;17702;47.590;7.666;2022-09-09T09:50:17;22.60;66.90
31038;DHT22;17702;47.590;7.666;2022-09-09T09:52:59;22.60;66.10
31038;DHT22;17702;47.590;7.666;2022-09-09T09:55:26;22.70;67.30
31038;DHT22;17702;47.590;7.666;2022-09-09T09:57:52;22.80;66.40
31038;DHT22;17702;47.590;7.666;2022-09-09T10:00:21;22.90;66.00
31038;DHT22;17702;47.590;7.666;2022-09-09T10:02:49;23.10;66.50
31038;DHT22;17702;47.590;7.666;2022-09-09T10:05:18;23.30;64.00
31038;DHT22;17702;47.590;7.666;2022-09-09T10:07:44;23.40;60.00
31038;DHT22;17702;47.590;7.666;2022-09-09T10:10:23;23.50;58.80
31038;DHT22;17702;47.590;7.666;2022-09-09T10:15:47;23.80;64.70
31038;DHT22;17702;47.590;7.666;2022-09-09T10:26:19;23.70;59.30
31038;DHT22;17702;47.590;7.666;2022-09-09T10:42:53;23.80;55.70
31038;DHT22;17702;47.590;7.666;2022-09-09T10:45:29;23.90;56.30
31038;DHT22;17702;47.590;7.666;2022-09-09T10:50:55;24.10;57.20
31038;DHT22;17702;47.590;7.666;2022-09-09T10:56:09;24.20;52.50
31038;DHT22;17702;47.590;7.666;2022-09-09T10:58:45;24.20;52.80
31038;DHT22;17702;47.590;7.666;2022-09-09T11:03:58;24.20;54.30
31038;DHT22;17702;47.590;7.666;2022-09-09T11:06:39;24.30;53.10
31038;DHT22;17702;47.590;7.666;2022-09-09T11:09:15;24.30;54.40
31038;DHT22;17702;47.590;7.666;2022-09-09T11:11:48;24.30;54.20
31038;DHT22;17702;47.590;7.666;2022-09-09T11:14:41;24.30;52.80
31038;DHT22;17702;47.590;7.666;2022-09-09T11:17:18;24.20;51.80
31038;DHT22;17702;47.590;7.666;2022-09-09T11:19:46;24.20;57.40
31038;DHT22;17702;47.590;7.666;2022-09-09T11:22:32;24.10;57.50
31038;DHT22;17702;47.590;7.666;2022-09-09T11:25:08;24.10;57.80
31038;DHT22;17702;47.590;7.666;2022-09-09T11:27:58;24.00;57.60
31038;DHT22;17702;47.590;7.666;2022-09-09T11:35:49;23.60;57.40
31038;DHT22;17702;47.590;7.666;2022-09-09T11:38:19;23.50;62.10
31038;DHT22;17702;47.590;7.666;2022-09-09T11:40:46;23.40;62.80
31038;DHT22;17702;47.590;7.666;2022-09-09T11:43:29;23.40;60.90
31038;DHT22;17702;47.590;7.666;2022-09-09T11:46:00;23.20;58.00
31038;DHT22;17702;47.590;7.666;2022-09-09T11:48:40;23.10;59.00
31038;DHT22;17702;47.590;7.666;2022-09-09T11:51:27;23.00;59.20
31038;DHT22;17702;47.590;7.666;2022-09-09T11:59:05;22.90;59.50
31038;DHT22;17702;47.590;7.666;2022-09-09T12:01:42;22.90;58.70
31038;DHT22;17702;47.590;7.666;2022-09-09T12:06:48;22.80;58.10
31038;DHT22;17702;47.590;7.666;2022-09-09T12:09:21;22.80;59.10
31038;DHT22;17702;47.590;7.666;2022-09-09T12:11:49;22.80;59.60
31038;DHT22;17702;47.590;7.666;2022-09-09T12:14:44;22.90;59.30
31038;DHT22;17702;47.590;7.666;2022-09-09T12:17:20;22.90;56.20
31038;DHT22;17702;47.590;7.666;2022-09-09T12:19:47;23.00;57.30
31038;DHT22;17702;47.590;7.666;2022-09-09T12:22:34;23.20;55.30
31038;DHT22;17702;47.590;7.666;2022-09-09T12:28:05;23.50;57.40
31038;DHT22;17702;47.590;7.666;2022-09-09T12:33:24;23.50;53.30
31038;DHT22;17702;47.590;7.666;2022-09-09T12:35:59;23.60;53.80
31038;DHT22;17702;47.590;7.666;2022-09-09T12:38:40;23.60;54.50
31038;DHT22;17702;47.590;7.666;2022-09-09T12:41:16;23.60;57.00
31038;DHT22;17702;47.590;7.666;2022-09-09T12:43:44;23.50;54.00
31038;DHT22;17702;47.590;7.666;2022-09-09T12:46:24;23.40;53.90
31038;DHT22;17702;47.590;7.666;2022-09-09T12:48:53;23.20;55.60
31038;DHT22;17702;47.590;7.666;2022-09-09T12:51:28;23.20;54.30
31038;DHT22;17702;47.590;7.666;2022-09-09T12:53:54;23.00;54.50
31038;DHT22;17702;47.590;7.666;2022-09-09T12:56:26;22.80;52.50
31038;DHT22;17702;47.590;7.666;2022-09-09T12:58:53;22.80;53.30
31038;DHT22;17702;47.590;7.666;2022-09-09T13:03:50;22.50;51.80
31038;DHT22;17702;47.590;7.666;2022-09-09T13:06:30;22.40;51.40
31038;DHT22;17702;47.590;7.666;2022-09-09T13:08:58;22.30;53.20
31038;DHT22;17702;47.590;7.666;2022-09-09T13:11:46;22.20;53.80
31038;DHT22;17702;47.590;7.666;2022-09-09T13:14:18;22.20;53.40
31038;DHT22;17702;47.590;7.666;2022-09-09T13:16:55;22.10;52.50
31038;DHT22;17702;47.590;7.666;2022-09-09T13:19:22;22.10;52.50
31038;DHT22;17702;47.590;7.666;2022-09-09T13:21:51;22.00;53.80
31038;DHT22;17702;47.590;7.666;2022-09-09T13:24:32;22.00;53.20
31038;DHT22;17702;47.590;7.666;2022-09-09T13:27:03;22.00;54.10
31038;DHT22;17702;47.590;7.666;2022-09-09T13:29:31;22.20;54.40
31038;DHT22;17702;47.590;7.666;2022-09-09T13:32:16;22.50;55.20
31038;DHT22;17702;47.590;7.666;2022-09-09T13:34:51;22.80;54.70
31038;DHT22;17702;47.590;7.666;2022-09-09T13:37:38;23.10;52.90
31038;DHT22;17702;47.590;7.666;2022-09-09T13:40:05;23.40;52.50
31038;DHT22;17702;47.590;7.666;2022-09-09T13:42:36;23.70;53.60
31038;DHT22;17702;47.590;7.666;2022-09-09T13:45:04;24.00;51.40
31038;DHT22;17702;47.590;7.666;2022-09-09T13:47:34;24.10;51.10
31038;DHT22;17702;47.590;7.666;2022-09-09T13:52:49;24.40;48.30
31038;DHT22;17702;47.590;7.666;2022-09-09T13:55:17;24.60;49.80
31038;DHT22;17702;47.590;7.666;2022-09-09T13:57:57;24.80;49.10
31038;DHT22;17702;47.590;7.666;2022-09-09T14:00:24;24.90;48.70
31038;DHT22;17702;47.590;7.666;2022-09-09T14:02:50;24.90;48.50
31038;DHT22;17702;47.590;7.666;2022-09-09T14:05:17;25.00;47.70
31038;DHT22;17702;47.590;7.666;2022-09-09T14:07:44;25.20;49.10
31038;DHT22;17702;47.590;7.666;2022-09-09T14:10:11;25.30;51.20
31038;DHT22;17702;47.590;7.666;2022-09-09T14:12:37;25.40;48.60
31038;DHT22;17702;47.590;7.666;2022-09-09T14:15:07;25.40;49.50
31038;DHT22;17702;47.590;7.666;2022-09-09T14:17:33;25.40;48.60
31038;DHT22;17702;47.590;7.666;2022-09-09T14:20:02;25.50;47.80
31038;DHT22;17702;47.590;7.666;2022-09-09T14:22:29;25.50;47.40
31038;DHT22;17702;47.590;7.666;2022-09-09T14:24:54;25.60;47.00
31038;DHT22;17702;47.590;7.666;2022-09-09T14:27:20;25.70;46.10
31038;DHT22;17702;47.590;7.666;2022-09-09T14:29:45;25.60;44.80
31038;DHT22;17702;47.590;7.666;2022-09-09T14:32:12;25.30;47.40
31038;DHT22;17702;47.590;7.666;2022-09-09T14:34:37;25.10;46.40
31038;DHT22;17702;47.590;7.666;2022-09-09T14:37:03;24.90;47.00
31038;DHT22;17702;47.590;7.666;2022-09-09T14:39:29;24.70;46.80
31038;DHT22;17702;47.590;7.666;2022-09-09T14:41:55;24.50;46.90
31038;DHT22;17702;47.590;7.666;2022-09-09T14:44:20;24.40;49.40
31038;DHT22;17702;47.590;7.666;2022-09-09T14:46:47;24.60;49.10
31038;DHT22;17702;47.590;7.666;2022-09-09T14:49:15;24.70;47.20
31038;DHT22;17702;47.590;7.666;2022-09-09T14:51:41;24.70;49.10
31038;DHT22;17702;47.590;7.666;2022-09-09T14:54:06;24.70;49.50
31038;DHT22;17702;47.590;7.666;2022-09-09T14:56:34;24.70;47.70
31038;DHT22;17702;47.590;7.666;2022-09-09T14:59:00;24.70;46.90
31038;DHT22;17702;47.590;7.666;2022-09-09T15:01:27;24.70;46.10
31038;DHT22;17702;47.590;7.666;2022-09-09T15:03:59;24.70;47.90
31038;DHT22;17702;47.590;7.666;2022-09-09T15:06:27;24.60;47.40
31038;DHT22;17702;47.590;7.666;2022-09-09T15:08:55;24.70;50.30
31038;DHT22;17702;47.590;7.666;2022-09-09T15:11:23;24.70;47.30
31038;DHT22;17702;47.590;7.666;2022-09-09T15:13:51;24.70;47.60
31038;DHT22;17702;47.590;7.666;2022-09-09T15:16:21;24.70;46.80
31038;DHT22;17702;47.590;7.666;2022-09-09T15:18:51;24.60;48.40
31038;DHT22;17702;47.590;7.666;2022-09-09T15:21:19;24.50;47.70
31038;DHT22;17702;47.590;7.666;2022-09-09T15:23:45;24.60;49.60
31038;DHT22;17702;47.590;7.666;2022-09-09T15:26:11;24.90;48.80
31038;DHT22;17702;47.590;7.666;2022-09-09T15:28:39;24.90;48.80
31038;DHT22;17702;47.590;7.666;2022-09-09T15:31:09;24.80;48.90
31038;DHT22;17702;47.590;7.666;2022-09-09T15:33:36;24.80;48.50
31038;DHT22;17702;47.590;7.666;2022-09-09T15:36:13;24.60;48.20
31038;DHT22;17702;47.590;7.666;2022-09-09T15:38:40;24.40;48.60
31038;DHT22;17702;47.590;7.666;2022-09-09T15:41:06;24.10;48.40
31038;DHT22;17702;47.590;7.666;2022-09-09T15:43:31;23.80;49.10
31038;DHT22;17702;47.590;7.666;2022-09-09T15:46:21;23.60;49.80
31038;DHT22;17702;47.590;7.666;2022-09-09T15:48:51;23.40;50.80
31038;DHT22;17702;47.590;7.666;2022-09-09T15:51:17;23.20;50.70
31038;DHT22;17702;47.590;7.666;2022-09-09T15:53:44;22.90;51.40
31038;DHT22;17702;47.590;7.666;2022-09-09T15:56:10;22.80;52.60
31038;DHT22;17702;47.590;7.666;2022-09-09T15:58:36;22.70;53.10
31038;DHT22;17702;47.590;7.666;2022-09-09T16:01:05;22.40;54.00
31038;DHT22;17702;47.590;7.666;2022-09-09T16:03:36;22.40;55.10
31038;DHT22;17702;47.590;7.666;2022-09-09T16:06:04;22.30;55.50
31038;DHT22;17702;47.590;7.666;2022-09-09T16:08:39;22.20;55.80
31038;DHT22;17702;47.590;7.666;2022-09-09T16:11:10;22.00;57.50
31038;DHT22;17702;47.590;7.666;2022-09-09T16:13:38;21.90;58.50
31038;DHT22;17702;47.590;7.666;2022-09-09T16:16:05;21.70;58.80
31038;DHT22;17702;47.590;7.666;2022-09-09T16:18:39;21.60;58.60
31038;DHT22;17702;47.590;7.666;2022-09-09T16:21:06;21.40;59.10
31038;DHT22;17702;47.590;7.666;2022-09-09T16:23:33;21.40;61.50
31038;DHT22;17702;47.590;7.666;2022-09-09T16:25:59;21.30;60.90
31038;DHT22;17702;47.590;7.666;2022-09-09T16:28:25;21.20;60.20
31038;DHT22;17702;47.590;7.666;2022-09-09T16:30:51;21.10;61.40
31038;DHT22;17702;47.590;7.666;2022-09-09T16:33:17;21.10;63.10
31038;DHT22;17702;47.590;7.666;2022-09-09T16:35:43;21.10;61.40
31038;DHT22;17702;47.590;7.666;2022-09-09T16:38:09;21.00;59.80
31038;DHT22;17702;47.590;7.666;2022-09-09T16:40:36;21.10;62.10
31038;DHT22;17702;47.590;7.666;2022-09-09T16:43:02;21.00;60.00
31038;DHT22;17702;47.590;7.666;2022-09-09T16:45:28;20.90;59.20
31038;DHT22;17702;47.590;7.666;2022-09-09T16:47:54;21.00;60.50
31038;DHT22;17702;47.590;7.666;2022-09-09T16:50:20;20.90;59.80
31038;DHT22;17702;47.590;7.666;2022-09-09T16:52:45;20.90;61.40
31038;DHT22;17702;47.590;7.666;2022-09-09T16:55:11;20.90;59.30
31038;DHT22;17702;47.590;7.666;2022-09-09T16:57:37;20.90;59.30
31038;DHT22;17702;47.590;7.666;2022-09-09T17:00:03;20.90;60.20
31038;DHT22;17702;47.590;7.666;2022-09-09T17:02:31;21.00;58.80
31038;DHT22;17702;47.590;7.666;2022-09-09T17:04:56;21.00;60.20
31038;DHT22;17702;47.590;7.666;2022-09-09T17:07:22;20.90;59.90
31038;DHT22;17702;47.590;7.666;2022-09-09T17:09:48;20.90;60.70
31038;DHT22;17702;47.590;7.666;2022-09-09T17:12:15;20.90;61.70
31038;DHT22;17702;47.590;7.666;2022-09-09T17:14:41;20.90;61.80
31038;DHT22;17702;47.590;7.666;2022-09-09T17:17:08;20.90;60.00
31038;DHT22;17702;47.590;7.666;2022-09-09T17:19:33;20.90;62.10
31038;DHT22;17702;47.590;7.666;2022-09-09T17:21:59;20.80;59.90
31038;DHT22;17702;47.590;7.666;2022-09-09T17:24:26;20.80;62.00
31038;DHT22;17702;47.590;7.666;2022-09-09T17:26:52;20.70;60.90
31038;DHT22;17702;47.590;7.666;2022-09-09T17:29:18;20.70;61.30
31038;DHT22;17702;47.590;7.666;2022-09-09T17:31:44;20.60;64.50
31038;DHT22;17702;47.590;7.666;2022-09-09T17:34:09;20.60;63.60
31038;DHT22;17702;47.590;7.666;2022-09-09T17:36:36;20.60;63.30
31038;DHT22;17702;47.590;7.666;2022-09-09T17:39:04;20.70;63.90
31038;DHT22;17702;47.590;7.666;2022-09-09T17:41:32;20.60;63.90
31038;DHT22;17702;47.590;7.666;2022-09-09T17:43:59;20.60;61.50
31038;DHT22;17702;47.590;7.666;2022-09-09T17:46:28;20.60;64.40
31038;DHT22;17702;47.590;7.666;2022-09-09T17:48:59;20.50;63.40
31038;DHT22;17702;47.590;7.666;2022-09-09T17:51:27;20.50;63.40